Time;durP1;ratioP1;P1;durP2;ratioP2;P2;SDS_P1;SDS_P2;PMS_P1;PMS_P2;Temp;Humidity;BMP_temperature;BMP_pressure;BME280_temperature;BME280_humidity;BME280_pressure;Samples;Min_cycle;Max_cycle;Signal;HPM_P1;HPM_P2
2023/09/03 00:00:12;;;;;;;0.30;0.30;;;;;;;17.22;100.00;97526.84;29395;204;63009;-53
2023/09/03 00:00:44;;;;;;;0.40;0.40;;;;;;;17.22;100.00;97529.56;29394;200;64009;-52
2023/09/03 00:01:15;;;;;;;0.40;0.40;;;;;;;17.23;100.00;97524.91;29395;205;63009;-52
2023/09/03 00:01:46;;;;;;;0.40;0.40;;;;;;;17.21;100.00;97525.22;29395;305;63004;-53
2023/09/03 00:02:17;;;;;;;0.30;0.30;;;;;;;17.21;100.00;97522.47;29395;227;63009;-52
2023/09/03 00:02:48;;;;;;;0.30;0.30;;;;;;;17.21;100.00;97521.66;29395;202;63004;-53
2023/09/03 00:03:20;;;;;;;0.30;0.30;;;;;;;17.19;100.00;97519.25;29395;312;63009;-52
2023/09/03 00:03:52;;;;;;;0.40;0.40;;;;;;;17.21;100.00;97519.72;29395;256;63004;-52
2023/09/03 00:04:23;;;;;;;0.40;0.40;;;;;;;17.19;100.00;97527.47;29394;246;64008;-69
2023/09/03 00:04:57;;;;;;;0.40;0.40;;;;;;;17.19;100.00;97524.72;29394;238;64009;-70
2023/09/03 00:05:28;;;;;;;0.40;0.40;;;;;;;17.18;100.00;97512.16;29395;277;63009;-53
2023/09/03 00:05:59;;;;;;;0.30;0.30;;;;;;;17.19;100.00;97524.72;29395;385;63005;-52
2023/09/03 00:06:31;;;;;;;0.40;0.40;;;;;;;17.18;100.00;97523.13;29395;352;63025;-53
2023/09/03 00:07:05;;;;;;;0.40;0.40;;;;;;;17.18;100.00;97512.16;29395;306;63017;-52
2023/09/03 00:07:36;;;;;;;0.37;0.37;;;;;;;17.20;100.00;97520.06;29394;335;64013;-52
2023/09/03 00:08:08;;;;;;;0.35;0.35;;;;;;;17.20;100.00;97529.09;29395;295;63005;-53
2023/09/03 00:08:39;;;;;;;0.30;0.30;;;;;;;17.21;100.00;97521.66;29395;225;63023;-52
2023/09/03 00:09:10;;;;;;;0.40;0.40;;;;;;;17.19;100.00;97510.22;29394;332;64009;-52
2023/09/03 00:09:44;;;;;;;0.40;0.40;;;;;;;17.20;100.00;97515.38;29395;197;63019;-52
2023/09/03 00:10:15;;;;;;;0.40;0.40;;;;;;;17.21;100.00;97519.72;29395;285;63004;-53
2023/09/03 00:10:54;;;;;;;0.40;0.40;;;;;;;17.21;100.00;97516.19;29395;202;63013;-68
2023/09/03 00:11:26;;;;;;;0.40;0.40;;;;;;;17.19;100.00;97516.50;29395;284;63004;-69
2023/09/03 00:11:57;;;;;;;0.40;0.40;;;;;;;17.20;100.00;97520.06;29394;203;64013;-54
2023/09/03 00:12:28;;;;;;;0.40;0.40;;;;;;;17.21;100.00;97516.19;29395;209;63016;-52
2023/09/03 00:12:59;;;;;;;0.40;0.40;;;;;;;17.20;100.00;97520.84;29394;263;64014;-53
2023/09/03 00:13:31;;;;;;;0.30;0.30;;;;;;;17.19;100.00;97513.75;29395;284;63005;-52
2023/09/03 00:14:02;;;;;;;0.40;0.40;;;;;;;17.21;100.00;97521.66;29395;266;63009;-68
2023/09/03 00:14:34;;;;;;;0.40;0.40;;;;;;;17.20;100.00;97520.84;29395;218;63000;-52
2023/09/03 00:15:06;;;;;;;0.40;0.40;;;;;;;17.20;100.00;97518.13;29395;250;63009;-52
2023/09/03 00:15:39;;;;;;;0.40;0.40;;;;;;;17.21;100.00;97514.25;29395;213;63004;-52
2023/09/03 00:16:10;;;;;;;0.40;0.40;;;;;;;17.20;100.00;97520.84;29395;219;63023;-53
2023/09/03 00:16:42;;;;;;;0.40;0.40;;;;;;;17.21;100.00;97521.66;29395;202;63015;-52
2023/09/03 00:17:14;;;;;;;0.40;0.40;;;;;;;17.19;100.00;97516.50;29395;228;63009;-52
2023/09/03 00:17:45;;;;;;;0.40;0.40;;;;;;;17.20;100.00;97520.06;29395;224;63012;-53
2023/09/03 00:18:17;;;;;;;0.30;0.30;;;;;;;17.19;100.00;97516.50;29394;222;64013;-52
2023/09/03 00:18:49;;;;;;;0.30;0.30;;;;;;;17.19;100.00;97518.44;29395;199;63004;-52
2023/09/03 00:19:21;;;;;;;0.40;0.40;;;;;;;17.19;100.00;97518.44;29394;265;64008;-53
2023/09/03 00:19:52;;;;;;;0.40;0.40;;;;;;;17.18;100.00;97514.88;29395;263;63008;-52
2023/09/03 00:20:23;;;;;;;0.30;0.30;;;;;;;17.17;100.00;97516.00;29395;229;63009;-53
2023/09/03 00:21:12;;;;;;;0.40;0.40;;;;;;;17.17;100.00;97513.28;29394;256;64022;-52
2023/09/03 00:21:44;;;;;;;0.40;0.40;;;;;;;17.18;100.00;97516.81;29395;331;63009;-52
2023/09/03 00:22:15;;;;;;;0.40;0.40;;;;;;;17.18;100.00;97516.81;29395;206;63005;-52
2023/09/03 00:22:46;;;;;;;0.40;0.40;;;;;;;17.18;100.00;97511.34;29395;243;63009;-54
2023/09/03 00:23:17;;;;;;;0.30;0.30;;;;;;;17.18;100.00;97514.06;29395;315;63004;-52
2023/09/03 00:23:50;;;;;;;0.40;0.40;;;;;;;17.18;100.00;97517.63;29395;296;63009;-52
2023/09/03 00:24:22;;;;;;;0.40;0.40;;;;;;;17.18;100.00;97516.81;29395;205;63004;-52
2023/09/03 00:24:57;;;;;;;0.40;0.40;;;;;;;17.19;100.00;97513.75;29395;238;63009;-52
2023/09/03 00:25:35;;;;;;;0.40;0.40;;;;;;;17.19;100.00;97519.25;29394;282;64009;-52
2023/09/03 00:26:06;;;;;;;0.40;0.40;;;;;;;17.19;100.00;97513.75;29395;246;63008;-52
2023/09/03 00:26:38;;;;;;;0.40;0.40;;;;;;;17.18;100.00;97512.16;29395;225;63005;-69
2023/09/03 00:27:09;;;;;;;0.40;0.40;;;;;;;17.19;100.00;97513.75;29395;290;63009;-52
2023/09/03 00:27:40;;;;;;;0.40;0.40;;;;;;;17.19;100.00;97512.94;29395;310;63005;-53
2023/09/03 00:28:11;;;;;;;0.40;0.40;;;;;;;17.18;100.00;97517.63;29395;358;63009;-52
2023/09/03 00:28:42;;;;;;;0.40;0.40;;;;;;;17.18;100.00;97517.63;29395;198;63005;-52
2023/09/03 00:29:14;;;;;;;0.30;0.30;;;;;;;17.19;100.00;97513.75;29395;340;63009;-52
2023/09/03 00:29:45;;;;;;;0.40;0.40;;;;;;;17.19;100.00;97507.47;29394;202;64009;-52
2023/09/03 00:30:17;;;;;;;0.40;0.40;;;;;;;17.19;100.00;97513.75;29395;268;63009;-52
2023/09/03 00:31:07;;;;;;;0.40;0.40;;;;;;;17.18;100.00;97517.63;29394;293;64009;-52
2023/09/03 00:31:39;;;;;;;0.30;0.30;;;;;;;17.20;100.00;97515.38;29395;248;63009;-52
2023/09/03 00:32:11;;;;;;;0.40;0.40;;;;;;;17.19;100.00;97511.00;29395;277;63004;-53
2023/09/03 00:32:42;;;;;;;0.40;0.40;;;;;;;17.19;100.00;97513.75;29395;323;63009;-52
2023/09/03 00:33:13;;;;;;;0.40;0.40;;;;;;;17.20;100.00;97514.56;29395;362;63010;-53
2023/09/03 00:33:44;;;;;;;0.30;0.30;;;;;;;17.20;100.00;97518.13;29395;197;63008;-52
2023/09/03 00:34:16;;;;;;;0.40;0.40;;;;;;;17.21;100.00;97517.00;29395;226;63005;-69
2023/09/03 00:34:47;;;;;;;0.40;0.40;;;;;;;17.20;100.00;97523.59;29395;275;63009;-52
2023/09/03 00:35:18;;;;;;;0.30;0.30;;;;;;;17.21;100.00;97522.47;29395;295;63005;-52
2023/09/03 00:35:50;;;;;;;0.40;0.40;;;;;;;17.21;100.00;97518.94;29394;246;64013;-53
2023/09/03 00:36:21;;;;;;;0.40;0.40;;;;;;;17.20;100.00;97520.06;29395;197;63005;-53
2023/09/03 00:36:52;;;;;;;0.37;0.37;;;;;;;17.21;100.00;97521.66;29395;293;63009;-69
2023/09/03 00:37:23;;;;;;;0.37;0.37;;;;;;;17.21;100.00;97517.00;29395;202;63005;-54
2023/09/03 00:37:54;;;;;;;0.35;0.35;;;;;;;17.21;100.00;97514.25;29395;304;63009;-68
2023/09/03 00:38:26;;;;;;;0.40;0.40;;;;;;;17.21;100.00;97522.47;29395;286;63004;-52
2023/09/03 00:38:57;;;;;;;0.40;0.40;;;;;;;17.22;100.00;97520.53;29394;300;64009;-52
2023/09/03 00:39:29;;;;;;;0.30;0.30;;;;;;;17.22;100.00;97518.59;29395;244;63004;-69
2023/09/03 00:40:00;;;;;;;0.30;0.30;;;;;;;17.21;100.00;97511.50;29395;244;63009;-53
2023/09/03 00:40:38;;;;;;;0.40;0.40;;;;;;;17.22;100.00;97515.84;29395;294;63004;-51
2023/09/03 00:41:10;;;;;;;0.40;0.40;;;;;;;17.22;100.00;97515.84;29394;207;64013;-52
2023/09/03 00:41:41;;;;;;;0.40;0.40;;;;;;;17.23;100.00;97520.22;29395;308;63005;-53
2023/09/03 00:42:12;;;;;;;0.40;0.40;;;;;;;17.22;100.00;97513.12;29395;197;63016;-52
2023/09/03 00:42:43;;;;;;;0.40;0.40;;;;;;;17.23;100.00;97520.22;29395;234;63005;-52
2023/09/03 00:43:14;;;;;;;0.30;0.30;;;;;;;17.23;100.00;97525.72;29395;230;63009;-52
2023/09/03 00:43:46;;;;;;;0.30;0.30;;;;;;;17.23;100.00;97517.47;29395;234;63005;-52
2023/09/03 00:44:17;;;;;;;0.30;0.30;;;;;;;17.24;100.00;97523.78;29394;233;64013;-52
2023/09/03 00:44:48;;;;;;;0.30;0.30;;;;;;;17.24;100.00;97521.84;29395;202;63005;-53
2023/09/03 00:45:19;;;;;;;0.30;0.30;;;;;;;17.24;100.00;97521.84;29395;246;63009;-52
2023/09/03 00:45:51;;;;;;;0.40;0.40;;;;;;;17.24;100.00;97519.09;29395;258;63004;-52
2023/09/03 00:46:23;;;;;;;0.40;0.40;;;;;;;17.24;100.00;97521.84;29395;234;63009;-52
2023/09/03 00:46:55;;;;;;;0.40;0.40;;;;;;;17.24;100.00;97521.84;29395;214;63004;-53
2023/09/03 00:47:27;;;;;;;0.40;0.40;;;;;;;17.25;100.00;97528.94;29394;258;64013;-52
2023/09/03 00:47:58;;;;;;;0.40;0.40;;;;;;;17.24;100.00;97526.50;29395;314;63004;-53
2023/09/03 00:48:33;;;;;;;0.40;0.40;;;;;;;17.25;100.00;97528.12;29395;278;63008;-52
2023/09/03 00:49:05;;;;;;;0.30;0.30;;;;;;;17.24;100.00;97527.31;29394;205;64009;-53
2023/09/03 00:49:42;;;;;;;0.30;0.30;;;;;;;17.24;100.00;97527.31;29395;243;63009;-52
2023/09/03 00:50:15;;;;;;;0.40;0.40;;;;;;;17.25;100.00;97522.66;29395;288;63005;-53
2023/09/03 00:50:47;;;;;;;0.30;0.30;;;;;;;17.25;100.00;97528.12;29395;296;63009;-52
2023/09/03 00:51:18;;;;;;;0.40;0.40;;;;;;;17.25;100.00;97528.94;29395;220;63005;-52
2023/09/03 00:51:53;;;;;;;0.40;0.40;;;;;;;17.24;100.00;97527.31;29395;220;63009;-52
2023/09/03 00:52:25;;;;;;;0.30;0.30;;;;;;;17.24;100.00;97519.09;29394;260;64009;-52
2023/09/03 00:52:56;;;;;;;0.30;0.30;;;;;;;17.23;100.00;97520.22;29395;291;63009;-52
2023/09/03 00:53:31;;;;;;;0.40;0.40;;;;;;;17.23;100.00;97530.38;29395;202;63004;-52
2023/09/03 00:54:04;;;;;;;0.35;0.35;;;;;;;17.23;100.00;97530.38;29395;290;63009;-53
2023/09/03 00:54:36;;;;;;;0.40;0.40;;;;;;;17.23;100.00;97533.94;29394;239;64009;-52
2023/09/03 00:55:08;;;;;;;0.40;0.40;;;;;;;17.22;100.00;97524.09;29395;202;63009;-52
2023/09/03 00:55:40;;;;;;;0.40;0.40;;;;;;;17.22;100.00;97524.09;29395;241;63009;-69
2023/09/03 00:56:11;;;;;;;0.30;0.30;;;;;;;17.22;100.00;97528.75;29395;254;63017;-52
2023/09/03 00:56:45;;;;;;;0.30;0.30;;;;;;;17.21;100.00;97525.22;29395;251;63005;-52
2023/09/03 00:57:17;;;;;;;0.40;0.40;;;;;;;17.20;100.00;97525.53;29395;290;63009;-52
2023/09/03 00:57:49;;;;;;;0.35;0.35;;;;;;;17.20;100.00;97531.81;29395;303;63005;-70
2023/09/03 00:58:21;;;;;;;0.40;0.40;;;;;;;17.19;100.00;97524.72;29395;280;63009;-53
2023/09/03 00:58:54;;;;;;;0.40;0.40;;;;;;;17.19;100.00;97530.22;29395;237;63012;-51
2023/09/03 00:59:29;;;;;;;0.40;0.40;;;;;;;17.18;100.00;97531.34;29394;199;64013;-51
2023/09/03 01:00:01;;;;;;;0.40;0.40;;;;;;;17.17;100.00;97521.50;29395;295;63005;-52
2023/09/03 01:00:33;;;;;;;0.40;0.40;;;;;;;17.16;100.00;97525.38;29395;319;63009;-52
2023/09/03 01:01:05;;;;;;;0.30;0.30;;;;;;;17.16;100.00;97519.06;29395;419;63004;-52
2023/09/03 01:01:37;;;;;;;0.30;0.30;;;;;;;17.15;100.00;97522.94;29395;196;63009;-51
2023/09/03 01:02:13;;;;;;;0.37;0.37;;;;;;;17.13;100.00;97516.97;29395;299;63004;-67
2023/09/03 01:02:46;;;;;;;0.30;0.30;;;;;;;17.13;100.00;97523.25;29395;280;63009;-52
2023/09/03 01:03:18;;;;;;;0.35;0.35;;;;;;;17.13;100.00;97526.00;29395;285;63004;-51
2023/09/03 01:03:49;;;;;;;0.40;0.40;;;;;;;17.13;100.00;97517.78;29394;268;64013;-68
2023/09/03 01:04:21;;;;;;;0.40;0.40;;;;;;;17.13;100.00;97519.72;29395;289;63005;-52
2023/09/03 01:04:52;;;;;;;0.37;0.37;;;;;;;17.12;100.00;97513.41;29395;254;63020;-51
2023/09/03 01:05:23;;;;;;;0.40;0.40;;;;;;;17.12;100.00;97520.84;29395;232;63007;-53
2023/09/03 01:05:55;;;;;;;0.40;0.40;;;;;;;17.11;100.00;97517.28;29395;261;63009;-53
2023/09/03 01:06:26;;;;;;;0.40;0.40;;;;;;;17.11;100.00;97521.97;29395;221;63005;-53
2023/09/03 01:06:58;;;;;;;0.40;0.40;;;;;;;17.09;100.00;97519.53;29395;196;63009;-52
2023/09/03 01:07:30;;;;;;;0.40;0.40;;;;;;;17.09;100.00;97519.53;29395;227;63005;-54
2023/09/03 01:08:03;;;;;;;0.40;0.40;;;;;;;17.08;100.00;97517.91;29395;255;63009;-53
2023/09/03 01:08:36;;;;;;;0.40;0.40;;;;;;;17.09;100.00;97519.53;29394;243;64009;-53
2023/09/03 01:09:07;;;;;;;0.40;0.40;;;;;;;17.08;100.00;97518.72;29394;198;64013;-53
2023/09/03 01:09:40;;;;;;;0.40;0.40;;;;;;;17.07;100.00;97517.13;29395;237;63004;-52
2023/09/03 01:10:12;;;;;;;0.40;0.40;;;;;;;17.08;100.00;97526.16;29395;205;63008;-53
2023/09/03 01:11:00;;;;;;;0.40;0.40;;;;;;;17.06;100.00;97520.19;29394;272;64008;-51
2023/09/03 01:12:10;;;;;;;0.32;0.32;;;;;;;17.05;100.00;97519.38;29395;197;63008;-51
2023/09/03 01:13:13;;;;;;;0.30;0.30;;;;;;;17.06;100.00;97525.66;29394;246;64009;-52
2023/09/03 01:14:12;;;;;;;;;;;;;;;17.05;100.00;97526.78;29996;982;6005;-52
2023/09/03 01:15:10;;;;;;;0.40;0.40;;;;;;;17.03;100.00;97526.28;29400;211;63009;-52
2023/09/03 01:15:47;;;;;;;0.40;0.40;;;;;;;17.02;100.00;97530.97;29395;202;63009;-52
2023/09/03 01:16:28;;;;;;;0.40;0.40;;;;;;;17.03;100.00;97523.56;29395;202;63000;-52
2023/09/03 01:17:55;;;;;;;0.40;0.40;;;;;;;17.02;100.00;97530.16;29416;196;64013;-52
2023/09/03 01:18:28;;;;;;;0.40;0.40;;;;;;;17.01;100.00;97534.03;29395;196;63005;-52
2023/09/03 01:19:08;;;;;;;0.40;0.40;;;;;;;17.01;100.00;97534.03;29395;279;63009;-52
2023/09/03 01:20:05;;;;;;;0.40;0.40;;;;;;;17.00;100.00;97526.94;29395;222;63005;-52
2023/09/03 01:20:42;;;;;;;0.40;0.40;;;;;;;17.00;100.00;97529.66;29396;281;63009;-52
2023/09/03 01:21:34;;;;;;;0.40;0.40;;;;;;;16.99;100.00;97530.78;29396;289;63008;-52
2023/09/03 01:22:21;;;;;;;0.40;0.40;;;;;;;16.98;100.00;97532.72;29395;202;64013;-68
2023/09/03 01:23:39;;;;;;;0.40;0.40;;;;;;;16.98;100.00;97537.44;29396;238;63004;-52
2023/09/03 01:24:59;;;;;;;0.40;0.40;;;;;;;16.96;100.00;97534.19;29396;202;63009;-52
2023/09/03 01:26:01;;;;;;;0.40;0.40;;;;;;;16.96;100.00;97532.28;29395;202;63004;-52
2023/09/03 01:27:14;;;;;;;0.40;0.40;;;;;;;16.98;100.00;97534.69;29418;197;63009;-52
2023/09/03 01:28:10;;;;;;;0.40;0.40;;;;;;;16.99;100.00;97539.03;29395;224;64009;-53
2023/09/03 01:28:43;;;;;;;0.40;0.40;;;;;;;16.97;100.00;97539.37;29396;198;63009;-52
2023/09/03 01:29:16;;;;;;;0.40;0.40;;;;;;;16.99;100.00;97533.53;29396;222;63005;-53
2023/09/03 01:29:48;;;;;;;0.40;0.40;;;;;;;16.99;100.00;97536.28;29396;227;63024;-53
2023/09/03 01:30:20;;;;;;;0.40;0.40;;;;;;;17.00;100.00;97532.41;29396;232;63004;-52
2023/09/03 01:31:01;;;;;;;0.40;0.40;;;;;;;17.00;100.00;97543.38;29396;248;63009;-52
2023/09/03 01:31:35;;;;;;;0.40;0.40;;;;;;;16.99;100.00;97539.03;29418;241;63004;-52
2023/09/03 01:32:08;;;;;;;0.40;0.40;;;;;;;17.00;100.00;97537.91;29395;202;64013;-52
2023/09/03 01:32:40;;;;;;;0.40;0.40;;;;;;;17.00;100.00;97540.63;29396;204;63010;-52
2023/09/03 01:33:13;;;;;;;0.40;0.40;;;;;;;17.00;100.00;97537.91;29396;229;63024;-52
2023/09/03 01:33:46;;;;;;;0.40;0.40;;;;;;;17.00;100.00;97544.19;29396;257;63005;-52
2023/09/03 01:34:18;;;;;;;0.40;0.40;;;;;;;17.00;100.00;97543.38;29396;375;63009;-52
2023/09/03 01:34:51;;;;;;;0.40;0.40;;;;;;;16.99;100.00;97542.56;29396;202;63005;-53
2023/09/03 01:35:23;;;;;;;0.40;0.40;;;;;;;17.00;100.00;97543.38;29396;246;63009;-52
2023/09/03 01:35:55;;;;;;;0.35;0.35;;;;;;;17.00;100.00;97546.94;29396;216;63005;-52
2023/09/03 01:36:27;;;;;;;0.40;0.40;;;;;;;16.99;100.00;97544.50;29396;306;63009;-53
2023/09/03 01:36:59;;;;;;;0.40;0.40;;;;;;;16.99;100.00;97552.72;29396;251;63011;-52
2023/09/03 01:37:31;;;;;;;0.37;0.37;;;;;;;16.98;100.00;97553.87;29395;337;64013;-53
2023/09/03 01:38:02;;;;;;;0.40;0.40;;;;;;;16.98;100.00;97545.66;29396;316;63004;-52
2023/09/03 01:38:34;;;;;;;0.30;0.30;;;;;;;16.97;100.00;97550.34;29395;212;64009;-52
2023/09/03 01:39:05;;;;;;;0.40;0.40;;;;;;;16.98;100.00;97548.41;29396;286;63017;-52
2023/09/03 01:39:37;;;;;;;0.40;0.40;;;;;;;16.98;100.00;97545.66;29396;318;63009;-52
2023/09/03 01:40:10;;;;;;;0.30;0.30;;;;;;;16.98;100.00;97548.41;29396;216;63004;-69
2023/09/03 01:40:41;;;;;;;0.40;0.40;;;;;;;16.97;100.00;97550.34;29395;196;64013;-68
2023/09/03 01:41:13;;;;;;;0.40;0.40;;;;;;;16.98;100.00;97551.12;29396;197;63005;-52
2023/09/03 01:41:44;;;;;;;0.40;0.40;;;;;;;16.96;100.00;97559.69;29396;291;63019;-53
2023/09/03 01:42:16;;;;;;;0.40;0.40;;;;;;;16.96;100.00;97550.66;29396;305;63005;-53
2023/09/03 01:42:47;;;;;;;0.32;0.32;;;;;;;16.97;100.00;97555.00;29396;332;63009;-52
2023/09/03 01:43:18;;;;;;;0.40;0.40;;;;;;;16.96;100.00;97558.88;29395;253;64005;-53
2023/09/03 01:43:49;;;;;;;0.40;0.40;;;;;;;16.96;100.00;97558.88;29396;299;63014;-68
2023/09/03 01:44:24;;;;;;;0.40;0.40;;;;;;;16.95;100.00;97554.50;29396;292;63005;-52
2023/09/03 01:44:55;;;;;;;0.40;0.40;;;;;;;16.95;100.00;97562.75;29396;236;63014;-52
2023/09/03 01:45:37;;;;;;;0.30;0.30;;;;;;;16.95;100.00;97557.25;29396;326;63004;-52
2023/09/03 01:46:29;;;;;;;0.40;0.40;;;;;;;16.95;100.00;97562.75;29395;253;64013;-52
2023/09/03 01:47:18;;;;;;;0.40;0.40;;;;;;;16.95;100.00;97562.75;29396;224;63004;-52
2023/09/03 01:48:02;;;;;;;0.40;0.40;;;;;;;16.95;100.00;97557.25;29396;202;63008;-53
2023/09/03 01:49:20;;;;;;;0.32;0.32;;;;;;;16.95;100.00;97562.75;29396;313;63004;-52
2023/09/03 01:50:18;;;;;;;0.40;0.40;;;;;;;16.95;100.00;97558.06;29396;334;63009;-52
2023/09/03 01:51:02;;;;;;;0.40;0.40;;;;;;;16.95;100.00;97565.47;29396;246;63005;-52
2023/09/03 01:52:16;;;;;;;0.40;0.40;;;;;;;16.95;100.00;97562.75;29395;258;64013;-52
2023/09/03 01:53:26;;;;;;;0.40;0.40;;;;;;;16.94;100.00;97561.13;29396;206;63004;-52
2023/09/03 01:54:24;;;;;;;0.40;0.40;;;;;;;16.88;100.00;97557.72;29396;202;63009;-52
2023/09/03 01:55:02;;;;;;;0.40;0.40;;;;;;;16.94;100.00;97563.88;29396;218;63004;-53
2023/09/03 01:55:38;;;;;;;0.40;0.40;;;;;;;16.94;100.00;97566.59;29396;224;63008;-53
2023/09/03 01:56:14;;;;;;;0.40;0.40;;;;;;;16.92;100.00;97568.84;29396;257;63005;-55
2023/09/03 01:57:18;;;;;;;0.40;0.40;;;;;;;16.93;100.00;97575.94;29395;312;64014;-52
2023/09/03 01:57:55;;;;;;;0.40;0.40;;;;;;;16.92;100.00;97574.34;29396;246;63005;-52
2023/09/03 01:58:30;;;;;;;0.40;0.40;;;;;;;16.92;100.00;97568.84;29395;301;64009;-52
2023/09/03 01:59:14;;;;;;;0.40;0.40;;;;;;;16.92;100.00;97574.34;29396;241;63000;-68
2023/09/03 01:59:51;;;;;;;0.40;0.40;;;;;;;16.91;100.00;97569.97;29396;242;63009;-52
2023/09/03 02:00:22;;;;;;;0.40;0.40;;;;;;;16.91;100.00;97576.25;29395;303;64009;-53
2023/09/03 02:00:56;;;;;;;0.30;0.30;;;;;;;16.90;100.00;97576.59;29396;293;63009;-52
2023/09/03 02:01:30;;;;;;;0.40;0.40;;;;;;;16.90;100.00;97571.09;29396;196;63015;-52
2023/09/03 02:02:03;;;;;;;0.40;0.40;;;;;;;16.88;100.00;97578.84;29396;199;63009;-53
2023/09/03 02:02:36;;;;;;;0.40;0.40;;;;;;;16.87;100.00;97577.22;29396;224;63004;-53
2023/09/03 02:03:11;;;;;;;0.40;0.40;;;;;;;16.83;100.00;97577.03;29396;350;63008;-52
2023/09/03 02:03:45;;;;;;;0.40;0.40;;;;;;;16.82;100.00;97571.88;29396;263;63001;-52
2023/09/03 02:04:18;;;;;;;0.40;0.40;;;;;;;16.79;100.00;97567.03;29397;283;63009;-52
2023/09/03 02:04:49;;;;;;;0.40;0.40;;;;;;;16.75;100.00;97575.06;29396;241;64009;-52
2023/09/03 02:05:21;;;;;;;0.40;0.40;;;;;;;16.72;100.00;97571.03;29396;207;64009;-52
2023/09/03 02:05:53;;;;;;;0.40;0.40;;;;;;;16.71;100.00;97569.41;29397;209;63005;-52
2023/09/03 02:06:24;;;;;;;0.40;0.40;;;;;;;16.70;100.00;97570.53;29397;280;63009;-52
2023/09/03 02:06:55;;;;;;;0.40;0.40;;;;;;;16.70;100.00;97569.72;29396;233;64009;-52
2023/09/03 02:07:27;;;;;;;0.40;0.40;;;;;;;16.68;100.00;97569.22;29397;200;63009;-53
2023/09/03 02:07:58;;;;;;;0.40;0.40;;;;;;;16.67;100.00;97567.59;29397;235;63004;-52
2023/09/03 02:08:29;;;;;;;0.35;0.35;;;;;;;16.65;100.00;97567.91;29397;254;63009;-52
2023/09/03 02:09:01;;;;;;;0.40;0.40;;;;;;;16.63;100.00;97567.41;29397;341;63004;-53
2023/09/03 02:09:32;;;;;;;0.40;0.40;;;;;;;16.63;100.00;97567.41;29397;341;63009;-53
2023/09/03 02:10:04;;;;;;;0.40;0.40;;;;;;;16.62;100.00;97571.28;29396;286;64008;-52
2023/09/03 02:10:36;;;;;;;0.40;0.40;;;;;;;16.61;100.00;97569.66;29397;287;63005;-53
2023/09/03 02:11:07;;;;;;;0.37;0.37;;;;;;;16.60;100.00;97573.53;29397;287;63005;-52
2023/09/03 02:11:38;;;;;;;0.40;0.40;;;;;;;16.59;100.00;97566.44;29397;203;63009;-52
2023/09/03 02:12:10;;;;;;;0.40;0.40;;;;;;;16.58;100.00;97573.03;29397;279;63005;-52
2023/09/03 02:12:41;;;;;;;0.40;0.40;;;;;;;16.57;100.00;97565.94;29397;204;63015;-52
2023/09/03 02:13:12;;;;;;;0.40;0.40;;;;;;;16.57;100.00;97568.69;29396;283;63005;-52
2023/09/03 02:13:45;;;;;;;0.40;0.40;;;;;;;16.57;100.00;97568.69;29397;228;63009;-53
2023/09/03 02:14:16;;;;;;;0.40;0.40;;;;;;;16.55;100.00;97576.41;29396;279;64009;-52
2023/09/03 02:14:47;;;;;;;0.40;0.40;;;;;;;16.52;100.00;97573.47;29397;221;63009;-53
2023/09/03 02:15:18;;;;;;;0.40;0.40;;;;;;;16.48;100.00;97570.56;29397;325;63004;-53
2023/09/03 02:15:49;;;;;;;0.50;0.50;;;;;;;16.46;100.00;97583.75;29397;202;63009;-52
2023/09/03 02:16:22;;;;;;;0.40;0.40;;;;;;;16.45;100.00;97582.12;29397;436;63004;-52
2023/09/03 02:16:54;;;;;;;0.40;0.40;;;;;;;16.45;100.00;97578.59;29396;330;63009;-52
2023/09/03 02:17:26;;;;;;;0.40;0.40;;;;;;;16.43;100.00;97579.72;29396;239;63004;-52
2023/09/03 02:17:57;;;;;;;0.40;0.40;;;;;;;16.43;100.00;97578.91;29395;295;64014;-52
2023/09/03 02:18:28;;;;;;;0.40;0.40;;;;;;;16.42;100.00;97578.09;29397;348;63001;-52
2023/09/03 02:18:59;;;;;;;0.40;0.40;;;;;;;16.43;100.00;97576.16;29396;249;63009;-53
2023/09/03 02:19:34;;;;;;;0.40;0.40;;;;;;;16.42;100.00;97583.56;29396;348;63005;-52
2023/09/03 02:20:06;;;;;;;0.40;0.40;;;;;;;16.42;100.00;97589.06;29396;264;63009;-52
2023/09/03 02:20:38;;;;;;;0.40;0.40;;;;;;;16.44;100.00;97591.47;29396;276;63005;-53
2023/09/03 02:21:09;;;;;;;0.40;0.40;;;;;;;16.42;100.00;97590.97;29396;270;63009;-52
2023/09/03 02:21:40;;;;;;;0.40;0.40;;;;;;;16.40;100.00;97585.81;29396;261;63005;-52
2023/09/03 02:22:12;;;;;;;0.40;0.40;;;;;;;16.40;100.00;97587.75;29395;215;64013;-53
2023/09/03 02:22:43;;;;;;;0.40;0.40;;;;;;;16.39;100.00;97583.38;29396;202;63004;-52
2023/09/03 02:23:14;;;;;;;0.40;0.40;;;;;;;16.38;100.00;97593.53;29396;218;63009;-52
2023/09/03 02:23:46;;;;;;;0.40;0.40;;;;;;;16.36;100.00;97595.78;29396;291;63004;-52
2023/09/03 02:24:18;;;;;;;0.30;0.30;;;;;;;16.35;100.00;97587.88;29396;363;63009;-69
2023/09/03 02:24:51;;;;;;;0.40;0.40;;;;;;;16.34;100.00;97589.00;29396;228;63004;-52
2023/09/03 02:25:22;;;;;;;0.40;0.40;;;;;;;16.32;100.00;97588.50;29396;251;63008;-53
2023/09/03 02:26:03;;;;;;;0.40;0.40;;;;;;;16.31;100.00;97586.88;29396;290;63005;-52
2023/09/03 02:26:44;;;;;;;0.40;0.40;;;;;;;16.28;100.00;97582.88;29418;249;63009;-52
2023/09/03 02:27:15;;;;;;;0.40;0.40;;;;;;;16.28;100.00;97584.78;29395;229;64009;-52
2023/09/03 02:27:50;;;;;;;0.40;0.40;;;;;;;16.27;100.00;97588.66;29396;230;63009;-52
2023/09/03 02:28:21;;;;;;;0.40;0.40;;;;;;;16.27;100.00;97583.19;29396;226;63005;-51
2023/09/03 02:28:55;;;;;;;0.40;0.40;;;;;;;16.26;100.00;97579.63;29397;210;63009;-52
2023/09/03 02:29:27;;;;;;;0.40;0.40;;;;;;;16.26;100.00;97581.56;29396;225;63005;-52
2023/09/03 02:29:58;;;;;;;0.40;0.40;;;;;;;16.27;100.00;97583.97;29395;214;64013;-52
2023/09/03 02:30:29;;;;;;;0.40;0.40;;;;;;;16.27;100.00;97585.91;29396;258;63004;-53
2023/09/03 02:31:04;;;;;;;0.40;0.40;;;;;;;16.27;100.00;97583.19;29396;215;63009;-52
2023/09/03 02:31:36;;;;;;;0.40;0.40;;;;;;;16.26;100.00;97589.78;29396;210;63004;-69
2023/09/03 02:32:07;;;;;;;0.40;0.40;;;;;;;16.26;100.00;97590.59;29395;219;64013;-52
2023/09/03 02:32:39;;;;;;;0.40;0.40;;;;;;;16.25;100.00;97590.91;29396;198;63004;-52
2023/09/03 02:33:10;;;;;;;0.40;0.40;;;;;;;16.26;100.00;97584.28;29396;196;63009;-53
2023/09/03 02:33:41;;;;;;;0.40;0.40;;;;;;;16.26;100.00;97587.03;29396;236;63005;-52
2023/09/03 02:34:13;;;;;;;0.40;0.40;;;;;;;16.24;100.00;97581.88;29396;198;63009;-52
2023/09/03 02:34:45;;;;;;;0.40;0.40;;;;;;;16.24;100.00;97586.53;29396;245;63008;-53
2023/09/03 02:35:16;;;;;;;0.40;0.40;;;;;;;16.22;100.00;97588.78;29396;208;63015;-52
2023/09/03 02:35:47;;;;;;;0.40;0.40;;;;;;;16.21;100.00;97593.44;29395;206;64009;-51
2023/09/03 02:36:18;;;;;;;0.40;0.40;;;;;;;16.21;100.00;97582.50;29396;280;63009;-53
2023/09/03 02:36:49;;;;;;;0.40;0.40;;;;;;;16.21;100.00;97587.16;29396;252;63008;-52
2023/09/03 02:37:21;;;;;;;0.40;0.40;;;;;;;16.22;100.00;97588.78;29395;256;64013;-68
2023/09/03 02:37:53;;;;;;;0.40;0.40;;;;;;;16.21;100.00;97587.16;29396;297;63004;-69
2023/09/03 02:38:24;;;;;;;0.40;0.40;;;;;;;16.21;100.00;97581.69;29396;220;63004;-52
2023/09/03 02:39:03;;;;;;;0.40;0.40;;;;;;;16.20;100.00;97585.53;29396;239;63004;-68
2023/09/03 02:39:35;;;;;;;0.40;0.40;;;;;;;16.20;100.00;97591.00;29396;204;63024;-52
2023/09/03 02:40:08;;;;;;;0.40;0.40;;;;;;;16.21;100.00;97587.16;29396;215;63004;-69
2023/09/03 02:40:39;;;;;;;0.40;0.40;;;;;;;16.20;100.00;97586.34;29395;212;64014;-52
2023/09/03 02:41:10;;;;;;;0.40;0.40;;;;;;;16.19;100.00;97590.22;29396;199;63005;-52
2023/09/03 02:41:41;;;;;;;0.40;0.40;;;;;;;16.19;100.00;97584.72;29396;198;63009;-52
2023/09/03 02:42:13;;;;;;;0.40;0.40;;;;;;;16.20;100.00;97591.00;29396;211;63005;-53
2023/09/03 02:42:44;;;;;;;0.40;0.40;;;;;;;16.19;100.00;97587.47;29396;198;63009;-52
2023/09/03 02:43:16;;;;;;;0.40;0.40;;;;;;;16.19;100.00;97589.41;29396;217;63000;-53
2023/09/03 02:43:47;;;;;;;0.40;0.40;;;;;;;16.19;100.00;97590.22;29396;236;63009;-52
2023/09/03 02:44:19;;;;;;;0.40;0.40;;;;;;;16.19;100.00;97589.41;29396;211;63005;-52
2023/09/03 02:44:50;;;;;;;0.40;0.40;;;;;;;16.19;100.00;97583.91;29395;199;64013;-52